Portada
METAR-TAF:

METAR-TAF

Aeropuertos :

Málaga, España

Aeropuerto de Málaga-Costa del Sol

latitud: 36-40N, longitud: 004-29W, altitud: 16 m

Observación

El informe se hizo hace 10 minutos, a las 22:30 UTC
Viento 6 kt del sureste
Temperatura 21°C
Humedad 83%
Presión 1016 hPa
Visibilidad 10 km o más
sin nubes por debajo de 1500 m y sin presencia de cumulonimbus.

METAR: LEMG 222230Z 13006KT CAVOK 21/18 Q1016 NOSIG

Hora: 00:40 (22:40 UTC)

Pronóstico

El informe se hizo hace 5 horas y 40 minutos, a las 17:00 UTC
Pronóstico válido del 22 a las 18 UTC al 23 a las 18 UTC
Viento 5 kt del sureste
Visibilidad 10 km o más
sin nubes por debajo de 1500 m y sin presencia de cumulonimbus.

TAF: LEMG 221700Z 2218/2318 13005KT CAVOK TX29/2218Z TN19/2301Z

Observaciones y pronósticos meteorológicos de más de 4000 aeropuertos (mensajes METAR y TAF).

Los puntos amarillos y rojos representan las estaciones disponibles.

Ponga el ratón en el punto deseado para ver el nombre de la estación.

Haga clic para ver las observaciones y los pronósticos meteorológicos.

Para cambiar el mapa : haga clic en los botones verdes con una cruz de color negro para hacer un zoom, en el botón verde con un guión para alejar o en las flechas verdes para mapas adyacentes.


METAR-TAF: